sensor_id;sensor_type;location;lat;lon;timestamp;P1;durP1;ratioP1;P2;durP2;ratioP2
2161;SDS011;1087;50.226;8.682;2022-11-15T00:00:49;26.87;;;20.03;;
2161;SDS011;1087;50.226;8.682;2022-11-15T00:03:15;24.63;;;19.50;;
2161;SDS011;1087;50.226;8.682;2022-11-15T00:05:42;17.77;;;15.87;;
2161;SDS011;1087;50.226;8.682;2022-11-15T00:08:08;19.00;;;17.10;;
2161;SDS011;1087;50.226;8.682;2022-11-15T00:10:34;21.67;;;17.40;;
2161;SDS011;1087;50.226;8.682;2022-11-15T00:13:00;18.63;;;16.57;;
2161;SDS011;1087;50.226;8.682;2022-11-15T00:15:29;18.37;;;16.30;;
2161;SDS011;1087;50.226;8.682;2022-11-15T00:17:55;20.83;;;17.47;;
2161;SDS011;1087;50.226;8.682;2022-11-15T00:20:20;19.07;;;17.00;;
2161;SDS011;1087;50.226;8.682;2022-11-15T00:22:46;17.33;;;15.60;;
2161;SDS011;1087;50.226;8.682;2022-11-15T00:25:11;16.60;;;14.80;;
2161;SDS011;1087;50.226;8.682;2022-11-15T00:27:37;21.23;;;15.93;;
2161;SDS011;1087;50.226;8.682;2022-11-15T00:30:02;19.00;;;16.97;;
2161;SDS011;1087;50.226;8.682;2022-11-15T00:32:31;16.13;;;14.47;;
2161;SDS011;1087;50.226;8.682;2022-11-15T00:34:57;22.90;;;16.60;;
2161;SDS011;1087;50.226;8.682;2022-11-15T00:37:23;19.83;;;15.57;;
2161;SDS011;1087;50.226;8.682;2022-11-15T00:39:48;20.43;;;15.90;;
2161;SDS011;1087;50.226;8.682;2022-11-15T00:42:14;16.30;;;14.13;;
2161;SDS011;1087;50.226;8.682;2022-11-15T00:44:39;17.07;;;15.10;;
2161;SDS011;1087;50.226;8.682;2022-11-15T00:47:05;18.63;;;15.30;;
2161;SDS011;1087;50.226;8.682;2022-11-15T00:49:30;16.17;;;13.73;;
2161;SDS011;1087;50.226;8.682;2022-11-15T00:51:56;16.23;;;14.40;;
2161;SDS011;1087;50.226;8.682;2022-11-15T00:54:21;15.40;;;13.80;;
2161;SDS011;1087;50.226;8.682;2022-11-15T00:56:47;17.90;;;15.10;;
2161;SDS011;1087;50.226;8.682;2022-11-15T00:59:12;20.40;;;17.17;;
2161;SDS011;1087;50.226;8.682;2022-11-15T01:01:38;17.33;;;14.83;;
2161;SDS011;1087;50.226;8.682;2022-11-15T01:04:03;18.17;;;15.13;;
2161;SDS011;1087;50.226;8.682;2022-11-15T01:06:29;17.43;;;14.07;;
2161;SDS011;1087;50.226;8.682;2022-11-15T01:08:54;16.43;;;14.50;;
2161;SDS011;1087;50.226;8.682;2022-11-15T01:11:20;17.83;;;15.93;;
2161;SDS011;1087;50.226;8.682;2022-11-15T01:13:45;16.50;;;13.30;;
2161;SDS011;1087;50.226;8.682;2022-11-15T01:16:15;16.03;;;14.23;;
2161;SDS011;1087;50.226;8.682;2022-11-15T01:18:43;14.60;;;12.73;;
2161;SDS011;1087;50.226;8.682;2022-11-15T01:21:10;17.37;;;14.20;;
2161;SDS011;1087;50.226;8.682;2022-11-15T01:23:37;15.40;;;12.70;;
2161;SDS011;1087;50.226;8.682;2022-11-15T01:26:05;14.40;;;13.00;;
2161;SDS011;1087;50.226;8.682;2022-11-15T01:28:33;14.47;;;12.97;;
2161;SDS011;1087;50.226;8.682;2022-11-15T01:31:00;15.00;;;13.53;;
2161;SDS011;1087;50.226;8.682;2022-11-15T01:33:27;13.80;;;12.40;;
2161;SDS011;1087;50.226;8.682;2022-11-15T01:35:53;17.90;;;15.03;;
2161;SDS011;1087;50.226;8.682;2022-11-15T01:38:19;15.90;;;13.60;;
2161;SDS011;1087;50.226;8.682;2022-11-15T01:40:44;16.53;;;14.03;;
2161;SDS011;1087;50.226;8.682;2022-11-15T01:43:23;16.57;;;14.83;;
2161;SDS011;1087;50.226;8.682;2022-11-15T01:45:57;15.50;;;13.90;;
2161;SDS011;1087;50.226;8.682;2022-11-15T01:48:28;15.50;;;12.80;;
2161;SDS011;1087;50.226;8.682;2022-11-15T01:50:58;15.67;;;13.70;;
2161;SDS011;1087;50.226;8.682;2022-11-15T01:53:26;15.37;;;12.87;;
2161;SDS011;1087;50.226;8.682;2022-11-15T01:55:54;17.63;;;13.63;;
2161;SDS011;1087;50.226;8.682;2022-11-15T01:58:20;15.60;;;13.90;;
2161;SDS011;1087;50.226;8.682;2022-11-15T02:00:46;16.53;;;14.20;;
2161;SDS011;1087;50.226;8.682;2022-11-15T02:03:12;15.00;;;13.47;;
2161;SDS011;1087;50.226;8.682;2022-11-15T02:05:38;17.07;;;14.10;;
2161;SDS011;1087;50.226;8.682;2022-11-15T02:08:06;13.70;;;12.17;;
2161;SDS011;1087;50.226;8.682;2022-11-15T02:10:33;15.63;;;13.73;;
2161;SDS011;1087;50.226;8.682;2022-11-15T02:12:58;14.73;;;12.90;;
2161;SDS011;1087;50.226;8.682;2022-11-15T02:15:26;16.00;;;14.30;;
2161;SDS011;1087;50.226;8.682;2022-11-15T03:27:23;10.87;;;9.47;;
2161;SDS011;1087;50.226;8.682;2022-11-15T03:29:53;9.83;;;8.77;;
2161;SDS011;1087;50.226;8.682;2022-11-15T03:32:25;13.40;;;9.27;;
2161;SDS011;1087;50.226;8.682;2022-11-15T03:34:56;14.87;;;10.67;;
2161;SDS011;1087;50.226;8.682;2022-11-15T03:37:29;14.27;;;10.40;;
2161;SDS011;1087;50.226;8.682;2022-11-15T03:40:14;11.90;;;10.80;;
2161;SDS011;1087;50.226;8.682;2022-11-15T03:42:48;13.53;;;11.33;;
2161;SDS011;1087;50.226;8.682;2022-11-15T03:45:28;11.63;;;10.40;;
2161;SDS011;1087;50.226;8.682;2022-11-15T03:48:05;11.97;;;10.77;;
2161;SDS011;1087;50.226;8.682;2022-11-15T03:50:42;10.73;;;9.63;;
2161;SDS011;1087;50.226;8.682;2022-11-15T03:53:10;10.80;;;9.70;;
2161;SDS011;1087;50.226;8.682;2022-11-15T03:55:36;10.70;;;9.60;;
2161;SDS011;1087;50.226;8.682;2022-11-15T03:58:01;12.53;;;10.83;;
2161;SDS011;1087;50.226;8.682;2022-11-15T04:00:28;11.47;;;10.27;;
2161;SDS011;1087;50.226;8.682;2022-11-15T04:02:53;12.30;;;10.80;;
2161;SDS011;1087;50.226;8.682;2022-11-15T04:05:19;13.70;;;10.73;;
2161;SDS011;1087;50.226;8.682;2022-11-15T04:07:45;11.40;;;10.30;;
2161;SDS011;1087;50.226;8.682;2022-11-15T04:10:10;12.07;;;10.87;;
2161;SDS011;1087;50.226;8.682;2022-11-15T04:12:38;11.60;;;10.50;;
2161;SDS011;1087;50.226;8.682;2022-11-15T04:15:11;11.33;;;10.07;;
2161;SDS011;1087;50.226;8.682;2022-11-15T04:17:41;12.00;;;10.67;;
2161;SDS011;1087;50.226;8.682;2022-11-15T04:20:16;11.67;;;9.87;;
2161;SDS011;1087;50.226;8.682;2022-11-15T04:23:01;13.40;;;10.40;;
2161;SDS011;1087;50.226;8.682;2022-11-15T04:25:49;11.70;;;10.50;;
2161;SDS011;1087;50.226;8.682;2022-11-15T04:28:16;11.43;;;10.23;;
2161;SDS011;1087;50.226;8.682;2022-11-15T04:30:42;12.37;;;10.90;;
2161;SDS011;1087;50.226;8.682;2022-11-15T04:33:08;11.33;;;10.13;;
2161;SDS011;1087;50.226;8.682;2022-11-15T04:35:34;13.63;;;11.00;;
2161;SDS011;1087;50.226;8.682;2022-11-15T04:38:00;12.87;;;10.70;;
2161;SDS011;1087;50.226;8.682;2022-11-15T04:40:26;12.37;;;10.10;;
2161;SDS011;1087;50.226;8.682;2022-11-15T04:42:52;10.83;;;9.73;;
2161;SDS011;1087;50.226;8.682;2022-11-15T04:45:17;12.00;;;10.13;;
2161;SDS011;1087;50.226;8.682;2022-11-15T04:47:43;11.30;;;10.30;;
2161;SDS011;1087;50.226;8.682;2022-11-15T04:50:10;11.73;;;10.03;;
2161;SDS011;1087;50.226;8.682;2022-11-15T04:52:42;12.37;;;10.00;;
2161;SDS011;1087;50.226;8.682;2022-11-15T04:55:14;10.07;;;8.93;;
2161;SDS011;1087;50.226;8.682;2022-11-15T04:57:40;15.13;;;10.60;;
2161;SDS011;1087;50.226;8.682;2022-11-15T05:00:07;10.83;;;9.63;;
2161;SDS011;1087;50.226;8.682;2022-11-15T05:02:34;11.07;;;9.97;;
2161;SDS011;1087;50.226;8.682;2022-11-15T05:05:19;11.80;;;9.83;;
2161;SDS011;1087;50.226;8.682;2022-11-15T05:07:44;11.77;;;10.40;;
2161;SDS011;1087;50.226;8.682;2022-11-15T05:10:10;11.70;;;9.73;;
2161;SDS011;1087;50.226;8.682;2022-11-15T05:12:36;13.70;;;10.40;;
2161;SDS011;1087;50.226;8.682;2022-11-15T05:15:02;11.70;;;10.50;;
2161;SDS011;1087;50.226;8.682;2022-11-15T05:17:28;11.50;;;10.33;;
2161;SDS011;1087;50.226;8.682;2022-11-15T05:19:53;10.13;;;9.13;;
2161;SDS011;1087;50.226;8.682;2022-11-15T05:22:20;12.27;;;10.00;;
2161;SDS011;1087;50.226;8.682;2022-11-15T05:24:45;11.10;;;9.70;;
2161;SDS011;1087;50.226;8.682;2022-11-15T05:27:11;11.80;;;10.03;;
2161;SDS011;1087;50.226;8.682;2022-11-15T05:29:36;11.10;;;9.90;;
2161;SDS011;1087;50.226;8.682;2022-11-15T05:32:03;11.23;;;10.13;;
2161;SDS011;1087;50.226;8.682;2022-11-15T05:34:30;10.20;;;9.10;;
2161;SDS011;1087;50.226;8.682;2022-11-15T05:36:56;13.60;;;10.20;;
2161;SDS011;1087;50.226;8.682;2022-11-15T05:39:21;10.50;;;9.50;;
2161;SDS011;1087;50.226;8.682;2022-11-15T05:41:48;10.30;;;9.30;;
2161;SDS011;1087;50.226;8.682;2022-11-15T05:44:18;10.60;;;9.37;;
2161;SDS011;1087;50.226;8.682;2022-11-15T05:46:46;10.53;;;9.43;;
2161;SDS011;1087;50.226;8.682;2022-11-15T05:49:13;11.23;;;9.37;;
2161;SDS011;1087;50.226;8.682;2022-11-15T05:51:42;11.20;;;9.97;;
2161;SDS011;1087;50.226;8.682;2022-11-15T05:54:12;11.40;;;10.30;;
2161;SDS011;1087;50.226;8.682;2022-11-15T05:56:38;10.03;;;9.03;;
2161;SDS011;1087;50.226;8.682;2022-11-15T05:59:03;11.10;;;9.93;;
2161;SDS011;1087;50.226;8.682;2022-11-15T06:01:30;10.40;;;9.40;;
2161;SDS011;1087;50.226;8.682;2022-11-15T06:03:56;10.83;;;9.83;;
2161;SDS011;1087;50.226;8.682;2022-11-15T06:06:21;10.60;;;9.50;;
2161;SDS011;1087;50.226;8.682;2022-11-15T06:08:47;10.03;;;9.13;;
2161;SDS011;1087;50.226;8.682;2022-11-15T06:11:13;10.20;;;9.20;;
2161;SDS011;1087;50.226;8.682;2022-11-15T06:13:38;9.83;;;8.90;;
2161;SDS011;1087;50.226;8.682;2022-11-15T06:16:04;10.97;;;9.33;;
2161;SDS011;1087;50.226;8.682;2022-11-15T06:18:34;12.50;;;11.30;;
2161;SDS011;1087;50.226;8.682;2022-11-15T06:21:00;14.00;;;11.83;;
2161;SDS011;1087;50.226;8.682;2022-11-15T06:23:26;14.73;;;13.30;;
2161;SDS011;1087;50.226;8.682;2022-11-15T06:25:53;19.27;;;17.10;;
2161;SDS011;1087;50.226;8.682;2022-11-15T06:28:18;18.70;;;16.77;;
2161;SDS011;1087;50.226;8.682;2022-11-15T06:30:44;16.30;;;14.73;;
2161;SDS011;1087;50.226;8.682;2022-11-15T06:33:09;17.00;;;15.03;;
2161;SDS011;1087;50.226;8.682;2022-11-15T06:35:35;14.73;;;13.23;;
2161;SDS011;1087;50.226;8.682;2022-11-15T06:38:01;15.90;;;14.20;;
2161;SDS011;1087;50.226;8.682;2022-11-15T06:40:28;14.53;;;13.13;;
2161;SDS011;1087;50.226;8.682;2022-11-15T06:43:00;12.30;;;11.00;;
2161;SDS011;1087;50.226;8.682;2022-11-15T06:45:26;12.00;;;10.73;;
2161;SDS011;1087;50.226;8.682;2022-11-15T06:47:52;11.87;;;10.67;;
2161;SDS011;1087;50.226;8.682;2022-11-15T06:50:18;12.13;;;10.83;;
2161;SDS011;1087;50.226;8.682;2022-11-15T06:52:44;12.17;;;9.77;;
2161;SDS011;1087;50.226;8.682;2022-11-15T06:55:09;13.53;;;11.37;;
2161;SDS011;1087;50.226;8.682;2022-11-15T06:57:35;14.17;;;12.10;;
2161;SDS011;1087;50.226;8.682;2022-11-15T07:00:02;18.93;;;17.03;;
2161;SDS011;1087;50.226;8.682;2022-11-15T07:02:29;20.77;;;17.53;;
2161;SDS011;1087;50.226;8.682;2022-11-15T07:04:54;20.40;;;18.37;;
2161;SDS011;1087;50.226;8.682;2022-11-15T07:07:20;20.13;;;18.10;;
2161;SDS011;1087;50.226;8.682;2022-11-15T07:09:45;16.73;;;14.70;;
2161;SDS011;1087;50.226;8.682;2022-11-15T07:12:11;13.00;;;11.00;;
2161;SDS011;1087;50.226;8.682;2022-11-15T07:14:36;11.47;;;9.40;;
2161;SDS011;1087;50.226;8.682;2022-11-15T07:17:05;12.80;;;10.97;;
2161;SDS011;1087;50.226;8.682;2022-11-15T07:19:31;11.17;;;10.07;;
2161;SDS011;1087;50.226;8.682;2022-11-15T07:21:56;11.20;;;9.90;;
2161;SDS011;1087;50.226;8.682;2022-11-15T07:24:22;11.77;;;10.60;;
2161;SDS011;1087;50.226;8.682;2022-11-15T07:26:47;11.57;;;9.60;;
2161;SDS011;1087;50.226;8.682;2022-11-15T07:29:13;9.83;;;8.43;;
2161;SDS011;1087;50.226;8.682;2022-11-15T07:31:38;8.67;;;7.77;;
2161;SDS011;1087;50.226;8.682;2022-11-15T07:34:04;8.30;;;7.57;;
2161;SDS011;1087;50.226;8.682;2022-11-15T07:36:30;8.73;;;8.00;;
2161;SDS011;1087;50.226;8.682;2022-11-15T07:38:55;9.20;;;7.53;;
2161;SDS011;1087;50.226;8.682;2022-11-15T07:41:21;8.17;;;7.37;;
2161;SDS011;1087;50.226;8.682;2022-11-15T07:43:46;8.33;;;7.53;;
2161;SDS011;1087;50.226;8.682;2022-11-15T07:46:12;9.50;;;8.63;;
2161;SDS011;1087;50.226;8.682;2022-11-15T07:48:37;8.70;;;7.80;;
2161;SDS011;1087;50.226;8.682;2022-11-15T07:51:06;9.17;;;8.03;;
2161;SDS011;1087;50.226;8.682;2022-11-15T07:53:32;9.20;;;7.43;;
2161;SDS011;1087;50.226;8.682;2022-11-15T07:55:57;9.17;;;7.07;;
2161;SDS011;1087;50.226;8.682;2022-11-15T07:58:23;8.23;;;7.47;;
2161;SDS011;1087;50.226;8.682;2022-11-15T08:00:48;9.23;;;7.40;;
2161;SDS011;1087;50.226;8.682;2022-11-15T08:03:14;7.83;;;7.13;;
2161;SDS011;1087;50.226;8.682;2022-11-15T08:05:41;7.40;;;6.60;;
2161;SDS011;1087;50.226;8.682;2022-11-15T08:08:08;9.37;;;6.97;;
2161;SDS011;1087;50.226;8.682;2022-11-15T08:10:35;8.07;;;7.27;;
2161;SDS011;1087;50.226;8.682;2022-11-15T08:13:02;8.57;;;6.87;;
2161;SDS011;1087;50.226;8.682;2022-11-15T08:15:30;8.07;;;6.47;;
2161;SDS011;1087;50.226;8.682;2022-11-15T08:17:56;9.27;;;7.27;;
2161;SDS011;1087;50.226;8.682;2022-11-15T08:20:23;9.30;;;6.90;;
2161;SDS011;1087;50.226;8.682;2022-11-15T08:22:51;9.57;;;8.67;;
2161;SDS011;1087;50.226;8.682;2022-11-15T08:25:17;7.87;;;7.10;;
2161;SDS011;1087;50.226;8.682;2022-11-15T08:27:43;9.07;;;8.17;;
2161;SDS011;1087;50.226;8.682;2022-11-15T08:30:08;8.53;;;7.73;;
2161;SDS011;1087;50.226;8.682;2022-11-15T08:32:35;8.27;;;7.30;;
2161;SDS011;1087;50.226;8.682;2022-11-15T08:35:00;8.13;;;7.03;;
2161;SDS011;1087;50.226;8.682;2022-11-15T08:37:26;10.83;;;8.20;;
2161;SDS011;1087;50.226;8.682;2022-11-15T08:39:51;8.93;;;8.03;;
2161;SDS011;1087;50.226;8.682;2022-11-15T08:42:17;8.63;;;7.83;;
2161;SDS011;1087;50.226;8.682;2022-11-15T08:44:42;9.13;;;8.30;;
2161;SDS011;1087;50.226;8.682;2022-11-15T08:47:09;8.70;;;7.90;;
2161;SDS011;1087;50.226;8.682;2022-11-15T08:49:36;7.47;;;6.60;;
2161;SDS011;1087;50.226;8.682;2022-11-15T08:52:01;8.57;;;7.70;;
2161;SDS011;1087;50.226;8.682;2022-11-15T08:54:27;8.47;;;7.60;;
2161;SDS011;1087;50.226;8.682;2022-11-15T08:56:53;8.73;;;7.83;;
2161;SDS011;1087;50.226;8.682;2022-11-15T08:59:18;7.77;;;6.97;;
2161;SDS011;1087;50.226;8.682;2022-11-15T09:01:44;9.07;;;8.17;;
2161;SDS011;1087;50.226;8.682;2022-11-15T09:04:09;12.63;;;7.90;;
2161;SDS011;1087;50.226;8.682;2022-11-15T09:06:35;9.33;;;7.00;;
2161;SDS011;1087;50.226;8.682;2022-11-15T09:09:00;8.10;;;7.30;;
2161;SDS011;1087;50.226;8.682;2022-11-15T09:11:27;10.00;;;7.90;;
2161;SDS011;1087;50.226;8.682;2022-11-15T09:13:52;11.77;;;10.57;;
2161;SDS011;1087;50.226;8.682;2022-11-15T09:16:18;14.80;;;13.27;;
2161;SDS011;1087;50.226;8.682;2022-11-15T09:18:44;16.33;;;14.63;;
2161;SDS011;1087;50.226;8.682;2022-11-15T09:21:09;15.30;;;13.67;;
2161;SDS011;1087;50.226;8.682;2022-11-15T09:23:35;13.97;;;12.57;;
2161;SDS011;1087;50.226;8.682;2022-11-15T09:26:01;13.47;;;10.90;;
2161;SDS011;1087;50.226;8.682;2022-11-15T09:28:29;15.97;;;11.30;;
2161;SDS011;1087;50.226;8.682;2022-11-15T09:30:59;15.90;;;11.50;;
2161;SDS011;1087;50.226;8.682;2022-11-15T09:33:25;13.30;;;11.90;;
2161;SDS011;1087;50.226;8.682;2022-11-15T09:35:52;14.00;;;12.20;;
2161;SDS011;1087;50.226;8.682;2022-11-15T09:38:17;12.23;;;9.73;;
2161;SDS011;1087;50.226;8.682;2022-11-15T09:40:43;14.80;;;10.03;;
2161;SDS011;1087;50.226;8.682;2022-11-15T09:43:24;9.90;;;9.00;;
2161;SDS011;1087;50.226;8.682;2022-11-15T09:51:17;13.80;;;12.40;;
2161;SDS011;1087;50.226;8.682;2022-11-15T09:53:50;15.10;;;13.50;;
2161;SDS011;1087;50.226;8.682;2022-11-15T09:56:22;14.73;;;12.93;;
2161;SDS011;1087;50.226;8.682;2022-11-15T10:05:16;11.33;;;10.20;;
2161;SDS011;1087;50.226;8.682;2022-11-15T10:10:39;11.43;;;10.27;;
2161;SDS011;1087;50.226;8.682;2022-11-15T10:13:23;14.37;;;12.97;;
2161;SDS011;1087;50.226;8.682;2022-11-15T10:16:12;12.80;;;11.60;;
2161;SDS011;1087;50.226;8.682;2022-11-15T10:21:40;12.63;;;9.73;;
2161;SDS011;1087;50.226;8.682;2022-11-15T10:24:18;11.00;;;9.90;;
2161;SDS011;1087;50.226;8.682;2022-11-15T10:26:46;13.30;;;10.80;;
2161;SDS011;1087;50.226;8.682;2022-11-15T10:29:17;13.00;;;10.40;;
2161;SDS011;1087;50.226;8.682;2022-11-15T10:31:44;12.63;;;11.33;;
2161;SDS011;1087;50.226;8.682;2022-11-15T10:34:13;11.77;;;10.67;;
2161;SDS011;1087;50.226;8.682;2022-11-15T10:36:59;13.70;;;10.60;;
2161;SDS011;1087;50.226;8.682;2022-11-15T10:39:28;10.23;;;9.23;;
2161;SDS011;1087;50.226;8.682;2022-11-15T10:41:54;12.27;;;10.80;;
2161;SDS011;1087;50.226;8.682;2022-11-15T10:44:21;11.90;;;10.10;;
2161;SDS011;1087;50.226;8.682;2022-11-15T10:49:25;11.27;;;10.17;;
2161;SDS011;1087;50.226;8.682;2022-11-15T10:52:00;13.83;;;10.40;;
2161;SDS011;1087;50.226;8.682;2022-11-15T10:54:51;12.20;;;10.17;;
2161;SDS011;1087;50.226;8.682;2022-11-15T10:57:22;14.47;;;10.80;;
2161;SDS011;1087;50.226;8.682;2022-11-15T11:02:35;13.13;;;11.00;;
2161;SDS011;1087;50.226;8.682;2022-11-15T11:05:24;11.20;;;9.20;;
2161;SDS011;1087;50.226;8.682;2022-11-15T11:08:09;12.73;;;10.30;;
2161;SDS011;1087;50.226;8.682;2022-11-15T11:10:57;12.67;;;9.53;;
2161;SDS011;1087;50.226;8.682;2022-11-15T11:15:54;14.20;;;11.83;;
2161;SDS011;1087;50.226;8.682;2022-11-15T11:18:33;10.93;;;9.77;;
2161;SDS011;1087;50.226;8.682;2022-11-15T11:21:08;11.37;;;10.23;;
2161;SDS011;1087;50.226;8.682;2022-11-15T11:23:40;11.10;;;9.30;;
2161;SDS011;1087;50.226;8.682;2022-11-15T11:26:31;8.70;;;7.80;;
2161;SDS011;1087;50.226;8.682;2022-11-15T11:29:14;10.30;;;8.73;;
2161;SDS011;1087;50.226;8.682;2022-11-15T11:32:21;9.77;;;7.90;;
2161;SDS011;1087;50.226;8.682;2022-11-15T11:35:14;8.87;;;7.97;;
2161;SDS011;1087;50.226;8.682;2022-11-15T11:37:48;8.60;;;7.80;;
2161;SDS011;1087;50.226;8.682;2022-11-15T11:40:31;10.40;;;7.10;;
2161;SDS011;1087;50.226;8.682;2022-11-15T11:50:48;8.77;;;7.90;;
2161;SDS011;1087;50.226;8.682;2022-11-15T11:56:35;11.33;;;7.37;;
2161;SDS011;1087;50.226;8.682;2022-11-15T11:59:16;9.30;;;7.20;;
2161;SDS011;1087;50.226;8.682;2022-11-15T12:02:24;7.97;;;6.30;;
2161;SDS011;1087;50.226;8.682;2022-11-15T12:05:13;6.50;;;5.90;;
2161;SDS011;1087;50.226;8.682;2022-11-15T12:07:47;5.77;;;5.10;;
2161;SDS011;1087;50.226;8.682;2022-11-15T12:10:22;6.70;;;6.07;;
2161;SDS011;1087;50.226;8.682;2022-11-15T12:12:54;8.87;;;5.40;;
2161;SDS011;1087;50.226;8.682;2022-11-15T12:15:33;6.33;;;5.73;;
2161;SDS011;1087;50.226;8.682;2022-11-15T12:18:04;7.17;;;6.00;;
2161;SDS011;1087;50.226;8.682;2022-11-15T12:20:32;5.77;;;5.27;;
2161;SDS011;1087;50.226;8.682;2022-11-15T12:23:15;6.83;;;5.60;;
2161;SDS011;1087;50.226;8.682;2022-11-15T12:25:52;8.30;;;5.47;;
2161;SDS011;1087;50.226;8.682;2022-11-15T12:34:01;7.90;;;5.63;;
2161;SDS011;1087;50.226;8.682;2022-11-15T12:41:30;6.40;;;5.80;;
2161;SDS011;1087;50.226;8.682;2022-11-15T12:43:57;7.30;;;6.20;;
2161;SDS011;1087;50.226;8.682;2022-11-15T12:49:02;7.20;;;5.93;;
2161;SDS011;1087;50.226;8.682;2022-11-15T13:17:39;6.60;;;6.00;;
2161;SDS011;1087;50.226;8.682;2022-11-15T13:22:46;7.97;;;7.20;;
2161;SDS011;1087;50.226;8.682;2022-11-15T13:25:39;7.73;;;6.53;;
2161;SDS011;1087;50.226;8.682;2022-11-15T13:28:11;7.53;;;6.83;;
2161;SDS011;1087;50.226;8.682;2022-11-15T13:30:55;9.27;;;7.20;;
2161;SDS011;1087;50.226;8.682;2022-11-15T13:36:03;6.80;;;5.97;;
2161;SDS011;1087;50.226;8.682;2022-11-15T13:38:34;6.90;;;6.20;;
2161;SDS011;1087;50.226;8.682;2022-11-15T13:41:44;8.53;;;6.50;;
2161;SDS011;1087;50.226;8.682;2022-11-15T13:43:58;7.57;;;6.87;;
2161;SDS011;1087;50.226;8.682;2022-11-15T13:46:28;7.67;;;6.97;;
2161;SDS011;1087;50.226;8.682;2022-11-15T13:48:59;8.17;;;6.90;;
2161;SDS011;1087;50.226;8.682;2022-11-15T13:56:37;7.40;;;6.70;;
2161;SDS011;1087;50.226;8.682;2022-11-15T13:59:08;8.60;;;7.70;;
2161;SDS011;1087;50.226;8.682;2022-11-15T14:01:50;7.97;;;7.17;;
2161;SDS011;1087;50.226;8.682;2022-11-15T14:04:18;8.07;;;7.27;;
2161;SDS011;1087;50.226;8.682;2022-11-15T14:06:47;8.97;;;7.80;;
2161;SDS011;1087;50.226;8.682;2022-11-15T14:11:51;11.80;;;8.50;;
2161;SDS011;1087;50.226;8.682;2022-11-15T14:14:19;6.87;;;6.20;;
2161;SDS011;1087;50.226;8.682;2022-11-15T14:16:48;8.00;;;7.20;;
2161;SDS011;1087;50.226;8.682;2022-11-15T14:24:39;10.83;;;7.13;;
2161;SDS011;1087;50.226;8.682;2022-11-15T14:27:15;8.47;;;7.67;;
2161;SDS011;1087;50.226;8.682;2022-11-15T14:29:41;9.07;;;7.23;;
2161;SDS011;1087;50.226;8.682;2022-11-15T14:32:13;11.63;;;9.93;;
2161;SDS011;1087;50.226;8.682;2022-11-15T14:34:44;10.30;;;9.27;;
2161;SDS011;1087;50.226;8.682;2022-11-15T14:37:19;8.60;;;7.80;;
2161;SDS011;1087;50.226;8.682;2022-11-15T14:39:47;17.07;;;13.80;;
2161;SDS011;1087;50.226;8.682;2022-11-15T14:42:12;15.23;;;11.63;;
2161;SDS011;1087;50.226;8.682;2022-11-15T14:44:38;9.97;;;8.97;;
2161;SDS011;1087;50.226;8.682;2022-11-15T14:47:03;11.97;;;10.67;;
2161;SDS011;1087;50.226;8.682;2022-11-15T14:49:29;15.03;;;10.57;;
2161;SDS011;1087;50.226;8.682;2022-11-15T14:51:54;18.90;;;13.97;;
2161;SDS011;1087;50.226;8.682;2022-11-15T14:54:20;32.03;;;25.20;;
2161;SDS011;1087;50.226;8.682;2022-11-15T14:56:45;20.63;;;15.20;;
2161;SDS011;1087;50.226;8.682;2022-11-15T14:59:11;17.00;;;13.20;;
2161;SDS011;1087;50.226;8.682;2022-11-15T15:01:36;16.37;;;11.70;;
2161;SDS011;1087;50.226;8.682;2022-11-15T15:04:02;21.27;;;14.73;;
2161;SDS011;1087;50.226;8.682;2022-11-15T15:06:27;19.10;;;14.70;;
2161;SDS011;1087;50.226;8.682;2022-11-15T15:08:53;17.00;;;14.37;;
2161;SDS011;1087;50.226;8.682;2022-11-15T15:11:23;27.87;;;15.70;;
2161;SDS011;1087;50.226;8.682;2022-11-15T15:13:50;23.47;;;16.27;;
2161;SDS011;1087;50.226;8.682;2022-11-15T15:16:17;26.17;;;14.20;;
2161;SDS011;1087;50.226;8.682;2022-11-15T15:18:43;25.03;;;14.70;;
2161;SDS011;1087;50.226;8.682;2022-11-15T15:21:27;23.40;;;15.00;;
2161;SDS011;1087;50.226;8.682;2022-11-15T15:23:53;19.13;;;14.93;;
2161;SDS011;1087;50.226;8.682;2022-11-15T15:26:19;15.77;;;12.50;;
2161;SDS011;1087;50.226;8.682;2022-11-15T15:28:45;18.20;;;11.20;;
2161;SDS011;1087;50.226;8.682;2022-11-15T15:31:13;16.37;;;13.07;;
2161;SDS011;1087;50.226;8.682;2022-11-15T15:33:39;25.93;;;21.30;;
2161;SDS011;1087;50.226;8.682;2022-11-15T15:36:04;19.37;;;17.27;;
2161;SDS011;1087;50.226;8.682;2022-11-15T15:38:30;14.47;;;12.93;;
2161;SDS011;1087;50.226;8.682;2022-11-15T15:40:56;16.93;;;15.20;;
2161;SDS011;1087;50.226;8.682;2022-11-15T15:43:21;15.37;;;13.87;;
2161;SDS011;1087;50.226;8.682;2022-11-15T15:45:47;16.50;;;14.17;;
2161;SDS011;1087;50.226;8.682;2022-11-15T15:48:13;15.50;;;14.00;;
2161;SDS011;1087;50.226;8.682;2022-11-15T15:50:40;17.17;;;15.27;;
2161;SDS011;1087;50.226;8.682;2022-11-15T15:53:07;17.67;;;14.63;;
2161;SDS011;1087;50.226;8.682;2022-11-15T15:55:35;16.23;;;13.80;;
2161;SDS011;1087;50.226;8.682;2022-11-15T15:58:01;16.07;;;14.27;;
2161;SDS011;1087;50.226;8.682;2022-11-15T16:00:26;21.33;;;16.70;;
2161;SDS011;1087;50.226;8.682;2022-11-15T16:02:52;21.50;;;18.90;;
2161;SDS011;1087;50.226;8.682;2022-11-15T16:05:18;20.90;;;17.37;;
2161;SDS011;1087;50.226;8.682;2022-11-15T16:07:44;22.60;;;16.27;;
2161;SDS011;1087;50.226;8.682;2022-11-15T16:12:50;16.73;;;14.60;;
2161;SDS011;1087;50.226;8.682;2022-11-15T16:15:17;16.93;;;13.40;;
2161;SDS011;1087;50.226;8.682;2022-11-15T16:17:51;12.30;;;11.10;;
2161;SDS011;1087;50.226;8.682;2022-11-15T16:20:31;13.10;;;11.77;;
2161;SDS011;1087;50.226;8.682;2022-11-15T16:22:57;13.07;;;11.60;;
2161;SDS011;1087;50.226;8.682;2022-11-15T16:25:23;13.07;;;10.93;;
2161;SDS011;1087;50.226;8.682;2022-11-15T16:27:50;15.90;;;12.43;;
2161;SDS011;1087;50.226;8.682;2022-11-15T16:30:17;15.80;;;13.00;;
2161;SDS011;1087;50.226;8.682;2022-11-15T16:32:48;14.30;;;12.80;;
2161;SDS011;1087;50.226;8.682;2022-11-15T16:35:14;11.50;;;10.30;;
2161;SDS011;1087;50.226;8.682;2022-11-15T16:37:41;11.63;;;10.53;;
2161;SDS011;1087;50.226;8.682;2022-11-15T16:43:03;12.80;;;11.50;;
2161;SDS011;1087;50.226;8.682;2022-11-15T16:45:30;16.83;;;14.47;;
2161;SDS011;1087;50.226;8.682;2022-11-15T16:47:59;19.37;;;17.33;;
2161;SDS011;1087;50.226;8.682;2022-11-15T16:50:26;15.90;;;14.40;;
2161;SDS011;1087;50.226;8.682;2022-11-15T16:52:54;14.00;;;12.50;;
2161;SDS011;1087;50.226;8.682;2022-11-15T16:55:21;14.93;;;13.47;;
2161;SDS011;1087;50.226;8.682;2022-11-15T16:57:47;15.33;;;13.73;;
2161;SDS011;1087;50.226;8.682;2022-11-15T17:00:14;12.50;;;11.30;;
2161;SDS011;1087;50.226;8.682;2022-11-15T17:02:41;12.60;;;11.27;;
2161;SDS011;1087;50.226;8.682;2022-11-15T17:05:11;13.67;;;12.33;;
2161;SDS011;1087;50.226;8.682;2022-11-15T17:07:37;11.37;;;10.27;;
2161;SDS011;1087;50.226;8.682;2022-11-15T17:10:04;13.20;;;12.03;;
2161;SDS011;1087;50.226;8.682;2022-11-15T17:12:29;43.40;;;22.63;;
2161;SDS011;1087;50.226;8.682;2022-11-15T17:14:55;37.90;;;22.80;;
2161;SDS011;1087;50.226;8.682;2022-11-15T17:17:21;54.97;;;27.00;;
2161;SDS011;1087;50.226;8.682;2022-11-15T17:19:47;37.43;;;23.07;;
2161;SDS011;1087;50.226;8.682;2022-11-15T17:22:12;45.40;;;23.90;;
2161;SDS011;1087;50.226;8.682;2022-11-15T17:24:38;52.27;;;28.67;;
2161;SDS011;1087;50.226;8.682;2022-11-15T17:27:03;37.47;;;21.33;;
2161;SDS011;1087;50.226;8.682;2022-11-15T17:29:29;30.13;;;17.93;;
2161;SDS011;1087;50.226;8.682;2022-11-15T17:31:54;20.87;;;14.63;;
2161;SDS011;1087;50.226;8.682;2022-11-15T17:34:20;20.90;;;13.50;;
2161;SDS011;1087;50.226;8.682;2022-11-15T17:36:45;19.63;;;14.13;;
2161;SDS011;1087;50.226;8.682;2022-11-15T17:39:12;18.43;;;14.47;;
2161;SDS011;1087;50.226;8.682;2022-11-15T17:41:37;15.23;;;12.87;;
2161;SDS011;1087;50.226;8.682;2022-11-15T17:44:03;92.03;;;59.23;;
2161;SDS011;1087;50.226;8.682;2022-11-15T17:46:29;79.33;;;59.60;;
2161;SDS011;1087;50.226;8.682;2022-11-15T17:48:55;64.33;;;55.40;;
2161;SDS011;1087;50.226;8.682;2022-11-15T17:51:21;47.33;;;42.30;;
2161;SDS011;1087;50.226;8.682;2022-11-15T17:53:48;33.73;;;30.07;;